createdAt,value
2022-08-30T00:00:05.744Z,100403.72
2022-08-30T00:02:37.111Z,100410.78
2022-08-30T00:05:07.369Z,100406.38
2022-08-30T00:07:38.092Z,100401.94
2022-08-30T00:10:10.076Z,100400.19
2022-08-30T00:12:39.041Z,100393.16
2022-08-30T00:15:09.392Z,100391.38
2022-08-30T00:17:43.711Z,100397.50
2022-08-30T00:20:18.072Z,100393.09
2022-08-30T00:22:47.960Z,100390.47
2022-08-30T00:25:17.675Z,100376.34
2022-08-30T00:27:46.818Z,100388.66
2022-08-30T00:30:17.251Z,100383.34
2022-08-30T00:32:47.569Z,100382.47
2022-08-30T00:35:20.541Z,100378.03
2022-08-30T00:37:50.847Z,100390.31
2022-08-30T00:40:24.834Z,100377.13
2022-08-30T00:42:59.569Z,100383.31
2022-08-30T00:45:35.624Z,100385.94
2022-08-30T00:48:06.978Z,100385.03
2022-08-30T00:50:40.910Z,100390.28
2022-08-30T00:53:16.364Z,100387.66
2022-08-30T00:55:45.859Z,100385.88
2022-08-30T00:58:21.379Z,100386.78
2022-08-30T01:00:53.315Z,100385.00
2022-08-30T01:03:23.919Z,100388.53
2022-08-30T01:05:53.837Z,100392.91
2022-08-30T01:08:23.283Z,100388.50
2022-08-30T01:10:54.473Z,100389.38
2022-08-30T01:13:26.645Z,100389.34
2022-08-30T01:15:56.793Z,100389.31
2022-08-30T01:18:27.646Z,100391.97
2022-08-30T01:21:03.821Z,100400.75
2022-08-30T01:23:36.699Z,100393.66
2022-08-30T01:26:07.965Z,100398.06
2022-08-30T01:28:37.816Z,100396.31
2022-08-30T01:31:07.273Z,100389.25
2022-08-30T01:33:38.632Z,100391.91
2022-08-30T01:36:12.497Z,100394.53
2022-08-30T01:38:49.192Z,100392.78
2022-08-30T01:41:23.089Z,100398.91
2022-08-30T01:43:55.481Z,100398.94
2022-08-30T01:46:29.017Z,100404.19
2022-08-30T01:48:59.770Z,100405.94
2022-08-30T01:51:30.028Z,100408.53
2022-08-30T01:54:00.332Z,100406.75
2022-08-30T01:56:30.979Z,100397.13
2022-08-30T01:59:02.957Z,100391.88
2022-08-30T02:01:35.838Z,100394.50
2022-08-30T02:04:06.643Z,100399.72
2022-08-30T02:06:35.846Z,100398.00
2022-08-30T02:09:06.861Z,100399.72
2022-08-30T02:11:35.680Z,100392.66
2022-08-30T02:14:04.875Z,100398.75
2022-08-30T02:16:33.993Z,100408.41
2022-08-30T02:19:02.820Z,100404.00
2022-08-30T02:21:31.837Z,100395.19
2022-08-30T02:24:00.541Z,100391.66
2022-08-30T02:26:30.701Z,100397.78
2022-08-30T02:29:00.133Z,100388.97
2022-08-30T02:31:28.950Z,100394.25
2022-08-30T02:33:58.776Z,100388.09
2022-08-30T02:36:27.758Z,100394.22
2022-08-30T02:38:56.634Z,100398.63
2022-08-30T02:41:25.523Z,100394.22
2022-08-30T02:43:58.462Z,100395.06
2022-08-30T02:46:27.265Z,100388.94
2022-08-30T02:49:12.997Z,100381.03
2022-08-30T02:51:51.317Z,100381.91
2022-08-30T02:54:20.811Z,100391.53
2022-08-30T02:56:51.091Z,100387.06
2022-08-30T02:59:21.061Z,100379.16
2022-08-30T03:04:19.131Z,100378.25
2022-08-30T03:06:56.133Z,100390.50
2022-08-30T03:09:24.737Z,100384.34
2022-08-30T03:11:53.405Z,100389.59
2022-08-30T03:14:24.163Z,100391.34
2022-08-30T03:16:53.193Z,100386.09
2022-08-30T03:19:22.663Z,100387.88
2022-08-30T03:21:51.507Z,100378.19
2022-08-30T03:24:20.310Z,100379.91
2022-08-30T03:26:49.134Z,100377.28
2022-08-30T03:29:18.023Z,100367.63
2022-08-30T03:31:53.656Z,100378.16
2022-08-30T03:34:24.136Z,100370.22
2022-08-30T03:36:55.095Z,100383.38
2022-08-30T03:39:25.963Z,100378.06
2022-08-30T03:41:55.372Z,100376.31
2022-08-30T03:44:24.535Z,100379.78
2022-08-30T03:46:54.769Z,100381.53
2022-08-30T03:49:24.475Z,100383.28
2022-08-30T03:51:53.343Z,100389.41
2022-08-30T03:54:24.232Z,100388.53
2022-08-30T03:56:53.605Z,100386.75
2022-08-30T03:59:22.266Z,100391.13
2022-08-30T04:01:51.565Z,100393.69
2022-08-30T04:04:21.868Z,100400.72
2022-08-30T04:06:50.965Z,100392.75
2022-08-30T04:09:20.397Z,100383.94
2022-08-30T04:11:49.214Z,100390.03
2022-08-30T04:14:18.093Z,100392.66
2022-08-30T04:16:47.064Z,100394.38
2022-08-30T04:19:15.920Z,100394.38
2022-08-30T04:21:46.064Z,100396.06
2022-08-30T04:24:15.438Z,100396.91
2022-08-30T04:26:44.731Z,100390.72
2022-08-30T04:29:16.715Z,100393.34
2022-08-30T04:31:45.665Z,100397.63
2022-08-30T04:34:16.092Z,100396.75
2022-08-30T04:36:48.139Z,100387.06
2022-08-30T04:39:17.645Z,100400.22
2022-08-30T04:41:46.576Z,100400.16
2022-08-30T04:44:19.491Z,100402.75
2022-08-30T04:46:49.024Z,100400.09
2022-08-30T04:49:17.725Z,100399.19
2022-08-30T04:51:50.195Z,100399.19
2022-08-30T04:54:20.837Z,100398.31
2022-08-30T04:56:56.214Z,100408.78
2022-08-30T04:59:27.646Z,100408.78
2022-08-30T05:01:59.262Z,100407.06
2022-08-30T05:04:28.783Z,100410.56
2022-08-30T05:07:00.574Z,100413.19
2022-08-30T05:09:30.347Z,100421.09
2022-08-30T05:11:59.558Z,100426.34
2022-08-30T05:14:29.255Z,100423.69
2022-08-30T05:16:59.700Z,100427.19
2022-08-30T05:19:28.812Z,100426.28
2022-08-30T05:21:59.523Z,100428.06
2022-08-30T05:24:29.098Z,100428.88
2022-08-30T05:27:05.759Z,100432.38
2022-08-30T05:29:36.347Z,100434.09
2022-08-30T05:32:10.349Z,100431.44
2022-08-30T05:34:40.306Z,100436.69
2022-08-30T05:37:13.928Z,100441.94
2022-08-30T05:39:51.525Z,100436.69
2022-08-30T05:42:26.903Z,100435.84
2022-08-30T05:45:01.594Z,100441.06
2022-08-30T05:47:34.543Z,100437.50
2022-08-30T05:50:07.286Z,100446.28
2022-08-30T05:52:45.346Z,100445.44
2022-08-30T05:55:16.626Z,100453.25
2022-08-30T05:57:55.927Z,100455.06
2022-08-30T06:00:30.586Z,100455.06
2022-08-30T06:03:07.323Z,100452.44
2022-08-30T06:05:39.483Z,100448.06
2022-08-30T06:08:14.088Z,100462.13
2022-08-30T06:10:46.036Z,100458.56
2022-08-30T06:13:19.828Z,100460.34
2022-08-30T06:15:56.875Z,100460.34
2022-08-30T06:18:31.803Z,100461.19
2022-08-30T09:54:37.040Z,100466.59
2022-08-30T09:57:13.299Z,100459.69
2022-08-30T09:59:54.316Z,100465.13
2022-08-30T10:02:44.511Z,100461.69
2022-08-30T10:05:25.246Z,100454.75
2022-08-30T10:08:07.132Z,100458.34
2022-08-30T10:10:50.940Z,100461.91
2022-08-30T10:13:52.024Z,100454.94
2022-08-30T10:16:37.127Z,100454.19
2022-08-30T10:19:22.826Z,100456.03
2022-08-30T10:21:59.879Z,100448.16
2022-08-30T10:24:36.079Z,100442.06
2022-08-30T10:27:12.789Z,100438.56
2022-08-30T10:29:47.541Z,100442.09
2022-08-30T10:32:25.851Z,100440.34
2022-08-30T10:34:59.065Z,100432.47
2022-08-30T10:37:31.384Z,100437.78
2022-08-30T10:40:26.681Z,100449.28
2022-08-30T10:43:03.080Z,100446.69
2022-08-30T10:45:37.884Z,100432.66
2022-08-30T10:48:15.508Z,100426.53
2022-08-30T10:50:50.205Z,100430.09
2022-08-30T10:53:24.751Z,100433.63
2022-08-30T10:55:59.025Z,100439.78
2022-08-30T10:58:31.407Z,100438.00
2022-08-30T11:01:23.594Z,100433.66
2022-08-30T11:04:32.992Z,100442.47
2022-08-30T11:07:19.076Z,100431.09
2022-08-30T11:10:27.967Z,100431.13
2022-08-30T11:13:02.790Z,100439.06
2022-08-30T11:15:38.832Z,100429.38
2022-08-30T11:18:15.397Z,100425.00
2022-08-30T11:20:49.354Z,100427.63
2022-08-30T11:23:32.798Z,100427.63
2022-08-30T11:26:06.154Z,100422.34
2022-08-30T11:29:06.948Z,100438.25
2022-08-30T11:31:42.636Z,100423.31
2022-08-30T11:34:13.544Z,100425.97
2022-08-30T11:37:09.839Z,100414.53
2022-08-30T11:39:56.361Z,100433.06
2022-08-30T11:45:52.460Z,100421.63
2022-08-30T11:48:54.502Z,100417.22
2022-08-30T11:52:26.514Z,100418.09
2022-08-30T11:55:24.420Z,100414.59
2022-08-30T11:58:02.226Z,100405.78
2022-08-30T12:00:36.662Z,100412.84
2022-08-30T12:03:08.034Z,100398.75
2022-08-30T12:05:59.824Z,100397.88
2022-08-30T12:09:02.320Z,100397.00
2022-08-30T12:11:56.971Z,100392.56
2022-08-30T12:14:49.044Z,100394.34
2022-08-30T12:17:53.623Z,100394.34
2022-08-30T12:20:28.842Z,100388.16
2022-08-30T12:23:16.960Z,100392.56
2022-08-30T12:25:46.693Z,100384.63
2022-08-30T12:28:23.176Z,100389.03
2022-08-30T12:30:52.559Z,100389.03
2022-08-30T12:33:39.495Z,100382.88
2022-08-30T12:36:32.047Z,100375.81
2022-08-30T12:39:16.953Z,100380.19
2022-08-30T12:41:46.822Z,100375.75
2022-08-30T12:44:20.570Z,100383.72
2022-08-30T12:46:58.861Z,100373.09
2022-08-30T12:49:32.687Z,100380.16
2022-08-30T12:52:18.547Z,100374.84
2022-08-30T12:54:49.348Z,100376.63
2022-08-30T12:57:39.190Z,100367.78
2022-08-30T13:00:11.660Z,100362.50
2022-08-30T13:02:48.194Z,100369.56
2022-08-30T13:05:47.907Z,100368.66
2022-08-30T13:08:22.945Z,100365.16
2022-08-30T13:11:04.451Z,100360.69
2022-08-30T13:13:45.697Z,100360.69
2022-08-30T13:16:29.362Z,100365.97
2022-08-30T13:19:29.310Z,100357.13
2022-08-30T13:22:00.036Z,100363.31
2022-08-30T13:24:29.284Z,100358.00
2022-08-30T13:27:06.578Z,100353.56
2022-08-30T13:29:35.280Z,100359.72
2022-08-30T13:32:04.520Z,100353.56
2022-08-30T13:34:35.466Z,100343.81
2022-08-30T13:37:05.109Z,100350.88
2022-08-30T13:40:04.019Z,100350.84
2022-08-30T13:42:35.191Z,100337.63
2022-08-30T13:45:40.866Z,100337.59
2022-08-30T13:48:00.122Z,100339.34
2022-08-30T13:50:31.874Z,100333.13
2022-08-30T13:54:13.059Z,100347.25
2022-08-30T13:57:54.842Z,100331.31
2022-08-30T14:00:47.052Z,100331.31
2022-08-30T14:03:17.084Z,100333.94
2022-08-30T14:05:54.570Z,100326.84
2022-08-30T14:08:48.787Z,100317.13
2022-08-30T14:11:22.859Z,100329.47
2022-08-30T14:16:49.374Z,100326.81
2022-08-30T14:19:22.874Z,100333.94
2022-08-30T14:21:52.240Z,100327.78
2022-08-30T14:24:21.467Z,100331.31
2022-08-30T14:26:53.939Z,100331.31
2022-08-30T14:29:29.885Z,100333.06
2022-08-30T14:32:00.573Z,100329.50
2022-08-30T14:34:29.447Z,100322.44
2022-08-30T14:36:58.264Z,100327.75
2022-08-30T14:39:27.372Z,100319.78
2022-08-30T14:41:57.085Z,100314.50
2022-08-30T14:44:27.193Z,100310.06
2022-08-30T14:46:56.550Z,100311.84
2022-08-30T14:49:27.379Z,100312.69
2022-08-30T14:51:56.931Z,100307.38
2022-08-30T14:54:29.054Z,100301.19
2022-08-30T14:56:58.703Z,100308.22
2022-08-30T14:59:28.883Z,100300.28
2022-08-30T15:01:57.829Z,100294.97
2022-08-30T15:04:27.930Z,100295.81
2022-08-30T15:06:56.529Z,100293.16
2022-08-30T15:09:26.109Z,100297.56
2022-08-30T15:11:58.835Z,100302.03
2022-08-30T15:14:28.399Z,100291.44
2022-08-30T15:16:58.322Z,100291.47
2022-08-30T15:19:29.204Z,100290.59
2022-08-30T15:22:02.402Z,100291.47
2022-08-30T15:24:32.609Z,100291.50
2022-08-30T15:27:02.152Z,100281.81
2022-08-30T15:29:32.157Z,100280.03
2022-08-30T15:32:02.390Z,100286.28
2022-08-30T15:34:33.701Z,100281.84
2022-08-30T15:37:02.907Z,100277.47
2022-08-30T15:39:32.265Z,100277.47
2022-08-30T15:42:01.790Z,100276.59
2022-08-30T15:44:31.678Z,100275.72
2022-08-30T15:47:00.618Z,100273.94
2022-08-30T15:49:31.501Z,100280.16
2022-08-30T15:52:04.131Z,100279.28
2022-08-30T15:54:33.380Z,100277.56
2022-08-30T15:57:02.684Z,100273.19
2022-08-30T15:59:34.698Z,100286.47
2022-08-30T16:02:03.349Z,100278.50
2022-08-30T16:04:33.576Z,100271.44
2022-08-30T16:07:02.624Z,100279.44
2022-08-30T16:09:43.970Z,100272.38
2022-08-30T16:12:21.188Z,100267.97
2022-08-30T16:14:55.104Z,100259.13
2022-08-30T16:17:26.991Z,100251.19
2022-08-30T16:19:58.884Z,100260.03
2022-08-30T16:22:37.487Z,100248.56
2022-08-30T16:25:07.700Z,100243.25
2022-08-30T16:27:55.882Z,100233.56
2022-08-30T16:30:29.211Z,100233.56
2022-08-30T16:33:00.971Z,100237.09
2022-08-30T16:35:31.194Z,100244.19
2022-08-30T16:38:00.179Z,100242.44
2022-08-30T16:40:42.942Z,100242.47
2022-08-30T16:43:24.275Z,100243.34
2022-08-30T16:46:07.020Z,100243.38
2022-08-30T16:48:35.930Z,100243.38
2022-08-30T16:51:17.734Z,100235.47
2022-08-30T16:54:03.680Z,100244.28
2022-08-30T16:56:54.098Z,100246.94
2022-08-30T16:59:29.243Z,100240.75
2022-08-30T17:02:09.387Z,100244.28
2022-08-30T17:04:56.569Z,100241.66
2022-08-30T17:07:27.189Z,100239.88
2022-08-30T17:10:26.361Z,100242.56
2022-08-30T17:13:01.078Z,100252.28
2022-08-30T17:15:36.496Z,100254.06
2022-08-30T17:18:19.492Z,100252.28
2022-08-30T17:20:52.532Z,100242.59
2022-08-30T17:23:26.095Z,100247.88
2022-08-30T17:26:07.946Z,100247.91
2022-08-30T17:28:51.075Z,100250.53
2022-08-30T17:31:22.033Z,100248.81
2022-08-30T17:33:51.758Z,100247.94
2022-08-30T17:36:20.268Z,100257.63
2022-08-30T17:38:50.829Z,100262.06
2022-08-30T17:41:19.513Z,100264.66
2022-08-30T17:43:49.223Z,100267.31
2022-08-30T18:46:55.749Z,100322.97
2022-08-30T18:49:26.025Z,100323.84
2022-08-30T18:51:54.752Z,100329.13
2022-08-30T18:54:23.962Z,100328.25
2022-08-30T18:56:53.034Z,100337.06
2022-08-30T18:59:23.710Z,100338.81
2022-08-30T19:02:06.287Z,100343.22
2022-08-30T19:04:36.066Z,100336.16
2022-08-30T19:07:07.003Z,100337.03
2022-08-30T19:09:36.520Z,100330.88
2022-08-30T19:12:09.461Z,100341.44
2022-08-30T19:14:40.507Z,100338.78
2022-08-30T19:17:11.304Z,100343.22
2022-08-30T19:19:48.100Z,100346.75
2022-08-30T19:22:19.431Z,100340.56
2022-08-30T19:24:49.628Z,100345.84
2022-08-30T19:27:23.138Z,100350.25
2022-08-30T19:30:09.443Z,100350.25
2022-08-30T19:32:39.734Z,100346.75
2022-08-30T19:35:10.919Z,100348.50
2022-08-30T19:37:40.544Z,100345.00
2022-08-30T19:40:15.067Z,100347.63
2022-08-30T19:42:46.582Z,100348.50
2022-08-30T19:45:18.566Z,100344.09
2022-08-30T19:47:50.810Z,100343.22
2022-08-30T19:50:20.787Z,100340.56
2022-08-30T19:52:55.020Z,100345.84
2022-08-30T19:55:28.758Z,100351.16
2022-08-30T19:58:00.499Z,100348.50
2022-08-30T20:00:31.182Z,100346.75
2022-08-30T20:03:02.547Z,100335.28
2022-08-30T20:05:32.623Z,100348.50
2022-08-30T20:08:01.458Z,100341.44
2022-08-30T20:10:30.477Z,100339.69
2022-08-30T20:12:59.887Z,100350.28
2022-08-30T20:15:29.201Z,100337.03
2022-08-30T20:18:06.060Z,100341.47
2022-08-30T20:23:35.443Z,100341.44
2022-08-30T20:26:05.480Z,100352.91
2022-08-30T20:28:34.287Z,100348.50
2022-08-30T20:31:06.672Z,100343.19
2022-08-30T20:33:38.185Z,100353.75
2022-08-30T20:36:11.520Z,100345.84
2022-08-30T20:38:40.958Z,100343.22
2022-08-30T20:41:12.713Z,100341.44
2022-08-30T20:43:42.194Z,100338.81
2022-08-30T20:46:13.086Z,100337.03
2022-08-30T20:48:43.390Z,100344.97
2022-08-30T20:51:19.408Z,100342.34
2022-08-30T20:53:48.576Z,100340.53
2022-08-30T20:56:21.769Z,100338.81
2022-08-30T20:58:51.279Z,100340.56
2022-08-30T21:01:21.059Z,100335.28
2022-08-30T21:03:51.221Z,100341.44
2022-08-30T21:06:22.061Z,100348.50
2022-08-30T21:08:51.203Z,100347.59
2022-08-30T21:11:21.058Z,100344.97
2022-08-30T21:13:49.890Z,100345.84
2022-08-30T21:16:22.187Z,100351.13
2022-08-30T21:18:51.748Z,100348.47
2022-08-30T21:21:26.596Z,100344.06
2022-08-30T21:24:00.872Z,100347.59
2022-08-30T21:26:31.474Z,100351.13
2022-08-30T21:29:00.465Z,100357.25
2022-08-30T21:31:30.302Z,100357.25
2022-08-30T21:33:59.316Z,100360.78
2022-08-30T21:36:47.023Z,100357.25
2022-08-30T21:39:21.171Z,100356.41
2022-08-30T21:41:53.020Z,100360.78
2022-08-30T21:44:25.745Z,100359.88
2022-08-30T21:46:56.227Z,100353.72
2022-08-30T21:49:26.549Z,100362.50
2022-08-30T21:51:57.670Z,100358.09
2022-08-30T21:54:28.383Z,100357.19
2022-08-30T21:57:05.000Z,100362.50
2022-08-30T21:59:34.336Z,100377.44
2022-08-30T22:08:17.730Z,100373.91
2022-08-30T22:30:20.904Z,100384.38
2022-08-30T22:32:49.982Z,100387.91
2022-08-30T22:35:21.627Z,100380.88
2022-08-30T22:37:52.946Z,100376.47
2022-08-30T22:40:23.062Z,100380.88
2022-08-30T22:42:54.170Z,100388.78
2022-08-30T22:45:22.840Z,100376.44
2022-08-30T22:47:51.490Z,100383.47
2022-08-30T22:50:20.587Z,100379.84
2022-08-30T22:52:50.021Z,100378.09
2022-08-30T22:55:19.240Z,100383.38
2022-08-30T22:57:48.105Z,100377.19
2022-08-30T23:00:20.441Z,100378.09
2022-08-30T23:02:53.318Z,100383.34
2022-08-30T23:05:24.256Z,100387.75
2022-08-30T23:07:53.154Z,100375.38
2022-08-30T23:10:27.958Z,100378.91
2022-08-30T23:12:56.971Z,100382.41
2022-08-30T23:15:29.626Z,100380.63
2022-08-30T23:17:59.328Z,100378.84
2022-08-30T23:20:32.516Z,100387.59
2022-08-30T23:23:01.300Z,100386.72
2022-08-30T23:25:52.104Z,100381.47
2022-08-30T23:28:40.590Z,100390.22
2022-08-30T23:31:32.099Z,100392.84
2022-08-30T23:34:18.965Z,100379.59
2022-08-30T23:37:05.565Z,100393.69
2022-08-30T23:39:51.707Z,100390.16
2022-08-30T23:42:37.886Z,100388.34
2022-08-30T23:45:25.491Z,100383.97
2022-08-30T23:48:13.061Z,100386.53
2022-08-30T23:50:59.121Z,100392.69
2022-08-30T23:53:44.879Z,100389.19
2022-08-30T23:56:31.270Z,100390.06
2022-08-30T23:59:17.683Z,100393.56
